Time;durP1;ratioP1;P1;durP2;ratioP2;P2;SDS_P1;SDS_P2;PMS_P1;PMS_P2;Temp;Humidity;BMP_temperature;BMP_pressure;BME280_temperature;BME280_humidity;BME280_pressure;Samples;Min_cycle;Max_cycle;Signal;HPM_P1;HPM_P2
2021/11/24 00:01:41;;;;;;;;;35.00;32.75;;;;;6.77;65.79;102310.09;4929007;28;48374;-96
2021/11/24 00:04:06;;;;;;;;;28.25;28.00;;;;;6.69;65.74;102294.69;4939927;28;45454;-96
2021/11/24 00:06:31;;;;;;;;;39.75;36.00;;;;;6.74;65.94;102305.53;4940517;28;45301;-96
2021/11/24 00:08:57;;;;;;;;;58.25;44.75;;;;;6.71;65.67;102297.41;4939873;28;45290;-96
2021/11/24 00:11:22;;;;;;;;;43.50;37.25;;;;;6.72;65.83;102293.13;4939408;28;48058;-96
2021/11/24 00:13:47;;;;;;;;;31.75;27.25;;;;;6.59;65.81;102266.91;4931897;28;45814;-96
2021/11/24 00:16:13;;;;;;;;;38.50;35.50;;;;;6.62;65.71;102274.06;4941833;28;45407;-96
2021/11/24 00:18:38;;;;;;;;;33.25;30.50;;;;;6.61;65.89;102268.69;4955800;28;45409;-96
2021/11/24 00:21:07;;;;;;;;;34.25;31.50;;;;;6.62;65.91;102270.53;4936739;28;47344;-96
2021/11/24 00:23:32;;;;;;;;;31.25;27.75;;;;;6.59;65.92;102274.72;4936520;28;45391;-96
2021/11/24 00:25:57;;;;;;;;;38.25;29.00;;;;;6.58;65.95;102266.75;4939998;28;45336;-96
2021/11/24 00:28:23;;;;;;;;;34.25;30.25;;;;;6.57;66.28;102264.94;4955821;28;45284;-96
2021/11/24 00:30:48;;;;;;;;;36.00;30.25;;;;;6.52;65.67;102259.28;4956006;28;46987;-96
2021/11/24 00:33:14;;;;;;;;;31.75;25.75;;;;;6.56;66.09;102264.00;4955819;28;45762;-96
2021/11/24 00:35:40;;;;;;;;;34.50;29.00;;;;;6.61;66.01;102274.84;4934778;28;46056;-96
2021/11/24 00:38:05;;;;;;;;;35.75;26.75;;;;;6.60;65.98;102283.44;4932407;28;45618;-96
2021/11/24 00:40:31;;;;;;;;;32.75;27.00;;;;;6.45;65.67;102252.63;4939756;28;48597;-96
2021/11/24 00:42:57;;;;;;;;;35.25;30.75;;;;;6.61;65.91;102280.06;4941312;28;45302;-96
2021/11/24 00:45:22;;;;;;;;;36.00;28.00;;;;;6.51;66.01;102264.38;4959559;28;45518;-96
2021/11/24 00:47:49;;;;;;;;;31.25;21.75;;;;;6.50;66.34;102257.31;4941073;28;45376;-96
2021/11/24 00:50:14;;;;;;;;;30.00;25.00;;;;;6.49;65.98;102269.47;4955815;28;47154;-96
2021/11/24 00:52:40;;;;;;;;;28.50;25.50;;;;;6.50;66.04;102265.16;4939288;28;45931;-96
2021/11/24 00:55:06;;;;;;;;;27.25;24.50;;;;;6.50;66.79;102265.16;4936308;28;45298;-96
2021/11/24 00:57:31;;;;;;;;;26.00;24.00;;;;;6.52;66.25;102264.50;4920618;28;45699;-96
2021/11/24 00:59:57;;;;;;;;;32.00;26.50;;;;;6.42;66.05;102251.44;4938336;28;46991;-96
2021/11/24 01:02:22;;;;;;;;;23.25;20.75;;;;;6.53;66.10;102268.97;4939637;28;45322;-96
2021/11/24 01:04:48;;;;;;;;;25.25;24.75;;;;;6.45;66.02;102257.84;4936585;28;45311;-96
2021/11/24 01:07:14;;;;;;;;;26.00;22.75;;;;;6.50;66.67;102265.16;4921436;28;45663;-96
2021/11/24 01:09:40;;;;;;;;;24.00;23.75;;;;;6.40;66.05;102242.56;4921300;28;47626;-96
2021/11/24 01:12:06;;;;;;;;;21.50;21.25;;;;;6.31;65.70;102225.38;4940945;28;45485;-96
2021/11/24 01:14:31;;;;;;;;;21.50;21.50;;;;;6.28;66.04;102222.50;4942284;28;45420;-96
2021/11/24 01:16:56;;;;;;;;;31.50;24.25;;;;;6.39;65.87;102244.25;4920912;28;45342;-95
2021/11/24 01:19:22;;;;;;;;;24.75;20.75;;;;;6.36;65.48;102249.25;4940165;28;47267;-96
2021/11/24 01:21:47;;;;;;;;;31.50;22.50;;;;;6.39;65.74;102254.69;4921555;28;45407;-96
2021/11/24 01:24:13;;;;;;;;;31.50;21.25;;;;;6.36;65.43;102242.34;4955313;28;45327;-96
2021/11/24 01:26:39;;;;;;;;;24.25;22.50;;;;;6.33;65.36;102246.34;4939237;28;45425;-96
2021/11/24 01:29:05;;;;;;;;;27.50;23.25;;;;;6.21;65.34;102227.97;4954885;28;48561;-96
2021/11/24 01:31:31;;;;;;;;;24.75;21.75;;;;;6.32;64.90;102257.56;4946349;28;45395;-96
2021/11/24 01:33:57;;;;;;;;;23.50;21.00;;;;;6.22;65.00;102235.91;4955595;28;45371;-96
2021/11/24 01:36:22;;;;;;;;;21.75;19.50;;;;;6.21;64.90;102234.06;4939044;28;45603;-96
2021/11/24 01:38:48;;;;;;;;;22.25;20.50;;;;;6.11;65.10;102219.31;4938717;28;48525;-96
2021/11/24 01:41:16;;;;;;;;;25.00;20.25;;;;;6.15;64.65;102230.94;4938170;28;45442;-96
2021/11/24 01:43:42;;;;;;;;;24.25;20.00;;;;;6.08;64.94;102224.25;4954668;28;45503;-96
2021/11/24 01:46:07;;;;;;;;;28.00;23.50;;;;;6.01;64.52;102212.34;4954697;28;45359;-96
2021/11/24 01:48:32;;;;;;;;;28.25;24.75;;;;;5.90;65.01;102200.06;4938875;28;48176;-96
2021/11/24 01:50:58;;;;;;;;;24.25;21.50;;;;;5.99;64.97;102224.34;4938517;28;45255;-96
2021/11/24 01:53:28;;;;;;;;;27.25;23.25;;;;;5.84;65.17;102205.66;4938824;28;45322;-96
2021/11/24 01:55:55;;;;;;;;;23.00;21.50;;;;;5.88;64.80;102206.81;4938882;28;45507;-96
2021/11/24 01:58:23;;;;;;;;;33.00;24.00;;;;;5.87;64.57;102205.94;4938567;28;48234;-96
2021/11/24 02:00:48;;;;;;;;;27.00;24.75;;;;;5.81;64.87;102205.38;4941004;28;45890;-96
2021/11/24 02:03:14;;;;;;;;;25.25;24.00;;;;;5.80;64.62;102207.06;4959659;28;45322;-96
2021/11/24 02:05:39;;;;;;;;;28.50;24.75;;;;;5.80;64.22;102219.16;4958815;28;45283;-96
2021/11/24 02:08:05;;;;;;;;;26.25;23.00;;;;;5.67;64.99;102198.97;4933290;28;47410;-96
2021/11/24 02:10:30;;;;;;;;;28.25;20.25;;;;;5.68;64.96;102211.19;4923104;28;45209;-96
2021/11/24 02:12:55;;;;;;;;;35.50;25.25;;;;;5.56;64.73;102191.09;4941865;28;45291;-96
2021/11/24 02:15:21;;;;;;;;;39.25;28.75;;;;;5.57;65.18;102192.00;4925819;28;45574;-96
2021/11/24 02:17:47;;;;;;;;;27.25;26.50;;;;;5.62;65.14;102200.25;4946049;28;48301;-96
2021/11/24 02:20:17;;;;;;;;;28.50;27.25;;;;;5.62;65.12;102202.84;4943791;28;45347;-94
2021/11/24 02:22:42;;;;;;;;;24.25;22.50;;;;;5.48;65.17;102181.69;4937340;28;44748;-96
2021/11/24 02:25:09;;;;;;;;;26.00;21.00;;;;;5.59;65.61;102204.38;4940863;28;45617;-96
2021/11/24 02:27:35;;;;;;;;;29.25;22.75;;;;;5.55;65.47;102194.47;4977142;28;47420;-95
2021/11/24 02:30:00;;;;;;;;;31.25;23.25;;;;;5.51;66.44;102181.03;4961302;28;44889;-95
2021/11/24 02:32:26;;;;;;;;;22.25;20.50;;;;;5.53;65.86;102185.59;4973741;28;44961;-94
2021/11/24 02:34:51;;;;;;;;;28.75;25.25;;;;;5.48;66.35;102161.75;4947460;28;45050;-91
2021/11/24 02:37:17;;;;;;;;;23.75;18.50;;;;;5.57;66.18;102174.66;4943904;28;47397;-95
2021/11/24 02:39:42;;;;;;;;;27.00;20.00;;;;;5.54;65.96;102171.78;4939732;28;45550;-95
2021/11/24 02:42:08;;;;;;;;;23.00;22.50;;;;;5.55;65.85;102171.03;4939843;28;45331;-95
2021/11/24 02:44:39;;;;;;;;;18.25;17.50;;;;;5.56;65.72;102175.47;4938811;28;45397;-94
2021/11/24 02:47:09;;;;;;;;;22.00;18.00;;;;;5.67;65.82;102181.59;4938089;28;48572;-95
2021/11/24 02:49:36;;;;;;;;;26.75;24.00;;;;;5.63;65.99;102170.78;4935247;28;45981;-95
2021/11/24 02:52:03;;;;;;;;;25.50;21.25;;;;;5.61;65.63;102175.88;4922854;28;45495;-95
2021/11/24 02:54:28;;;;;;;;;27.25;19.25;;;;;5.49;65.67;102147.03;4938530;28;45598;-94
2021/11/24 02:56:54;;;;;;;;;25.00;20.50;;;;;5.54;65.93;102166.56;4937419;28;47284;-95
2021/11/24 02:59:21;;;;;;;;;25.25;21.25;;;;;5.54;65.74;102161.38;4938446;28;45891;-95
2021/11/24 03:01:46;;;;;;;;;25.75;22.00;;;;;5.37;65.52;102131.22;4937732;28;45412;-95
2021/11/24 03:04:11;;;;;;;;;30.75;23.00;;;;;5.48;65.40;102150.41;4934477;28;45734;-94
2021/11/24 03:06:37;;;;;;;;;29.25;24.00;;;;;5.44;65.56;102156.13;4918352;28;47114;-94
2021/11/24 03:09:04;;;;;;;;;31.00;29.75;;;;;5.35;65.54;102143.19;4937853;28;45708;-93
2021/11/24 03:11:29;;;;;;;;;33.00;24.00;;;;;5.27;65.23;102132.09;4937291;28;45507;-95
2021/11/24 03:13:55;;;;;;;;;31.00;26.25;;;;;5.36;65.40;102147.66;4937341;28;45355;-94
2021/11/24 03:16:20;;;;;;;;;28.75;26.00;;;;;5.27;65.53;102131.19;4932756;28;53636;-95
2021/11/24 03:18:45;;;;;;;;;37.25;32.25;;;;;5.36;65.44;102148.53;4919262;28;45461;-95
2021/11/24 03:21:12;;;;;;;;;35.00;28.50;;;;;5.12;65.44;102114.34;4953790;28;45487;-95
2021/11/24 03:23:37;;;;;;;;;36.50;27.75;;;;;5.16;65.05;102115.50;4920820;28;45604;-94
2021/11/24 03:26:03;;;;;;;;;29.50;27.25;;;;;5.26;64.93;102140.69;4929438;28;47292;-95
2021/11/24 03:28:28;;;;;;;;;34.75;29.50;;;;;5.13;64.97;102115.22;4933689;28;45644;-95
2021/11/24 03:30:53;;;;;;;;;37.00;30.25;;;;;5.11;64.99;102122.91;4934520;28;45288;-94
2021/11/24 03:33:19;;;;;;;;;29.75;28.50;;;;;5.10;65.39;102133.19;4935818;28;45340;-95
2021/11/24 03:35:45;;;;;;;;;31.75;28.25;;;;;4.98;65.25;102113.06;4950035;28;47340;-95
2021/11/24 03:38:10;;;;;;;;;30.75;30.50;;;;;5.06;65.13;102134.59;4918832;28;45944;-96
2021/11/24 03:40:36;;;;;;;;;32.25;27.75;;;;;5.01;65.74;102133.25;4919441;28;45316;-96
2021/11/24 03:43:03;;;;;;;;;32.25;29.50;;;;;4.86;65.69;102105.09;4917982;28;45380;-95
2021/11/24 03:45:33;;;;;;;;;32.75;30.25;;;;;4.97;65.50;102129.50;4918061;28;47046;-94
2021/11/24 03:48:00;;;;;;;;;42.50;31.25;;;;;4.91;65.26;102122.03;4933737;28;45267;-95
2021/11/24 03:50:26;;;;;;;;;36.75;29.75;;;;;4.96;65.48;102126.72;4918017;28;45443;-95
2021/11/24 03:52:51;;;;;;;;;39.50;32.75;;;;;4.87;65.55;102119.03;4925155;28;48672;-95
2021/11/24 03:55:17;;;;;;;;;37.25;28.75;;;;;4.78;65.35;102100.88;4933181;28;48303;-94
2021/11/24 03:57:44;;;;;;;;;35.00;31.25;;;;;4.67;65.62;102087.78;4933552;28;45425;-94
2021/11/24 04:00:13;;;;;;;;;44.75;35.50;;;;;4.83;65.54;102112.59;4935148;28;45494;-95
2021/11/24 04:02:39;;;;;;;;;33.75;33.25;;;;;4.79;65.74;102098.38;4936814;28;45596;-94
2021/11/24 04:05:06;;;;;;;;;36.50;34.50;;;;;4.78;65.88;102091.38;4936565;28;47284;-95
2021/11/24 04:07:32;;;;;;;;;45.50;31.25;;;;;4.85;65.84;102107.53;4949792;28;45772;-95
2021/11/24 04:09:57;;;;;;;;;41.25;33.25;;;;;4.80;65.33;102101.91;4950488;28;45456;-94
2021/11/24 04:12:22;;;;;;;;;45.00;36.25;;;;;4.65;65.80;102076.34;4936406;28;45227;-95
2021/11/24 04:14:48;;;;;;;;;34.50;32.50;;;;;4.68;65.95;102076.63;4934376;28;47240;-95
2021/11/24 04:17:15;;;;;;;;;42.50;33.50;;;;;4.63;65.52;102080.50;4936505;28;45676;-95
2021/11/24 04:19:40;;;;;;;;;32.50;30.50;;;;;4.73;65.91;102103.06;4933628;28;45463;-94
2021/11/24 04:22:06;;;;;;;;;33.75;28.50;;;;;4.58;65.70;102072.28;4917867;28;45296;-94
2021/11/24 04:24:33;;;;;;;;;40.25;29.50;;;;;4.59;65.34;102078.38;4917128;28;47072;-94
2021/11/24 04:26:58;;;;;;;;;31.75;29.75;;;;;4.62;65.52;102077.72;4935931;28;45578;-96
2021/11/24 04:29:24;;;;;;;;;38.50;34.50;;;;;4.61;65.45;102074.25;4924260;28;45341;-95
2021/11/24 04:31:49;;;;;;;;;34.75;29.00;;;;;4.67;65.42;102085.19;4942943;28;45174;-94
2021/11/24 04:34:14;;;;;;;;;28.25;27.75;;;;;4.46;65.71;102039.91;4950323;28;47198;-95
2021/11/24 04:36:40;;;;;;;;;31.75;28.50;;;;;4.55;66.09;102064.19;4921422;28;46015;-95
2021/11/24 04:39:05;;;;;;;;;36.00;32.25;;;;;4.60;65.91;102076.69;4932197;28;45513;-94
2021/11/24 04:41:30;;;;;;;;;33.25;27.25;;;;;4.64;65.87;102079.69;4951208;28;45231;-96
2021/11/24 04:43:56;;;;;;;;;35.00;31.75;;;;;4.43;65.78;102043.16;4944426;28;48624;-95
2021/11/24 04:46:22;;;;;;;;;36.50;26.00;;;;;4.60;66.01;102072.41;4926411;28;45584;-95
2021/11/24 04:48:47;;;;;;;;;32.25;29.00;;;;;4.54;65.97;102066.63;4940017;28;45485;-95
2021/11/24 04:51:13;;;;;;;;;34.25;25.25;;;;;4.45;65.96;102051.13;4936034;28;45515;-94
2021/11/24 04:53:38;;;;;;;;;23.75;19.00;;;;;4.42;65.72;102041.34;4935432;28;47157;-95
2021/11/24 04:56:04;;;;;;;;;29.25;26.25;;;;;4.44;65.61;102047.59;4939123;28;45713;-94
2021/11/24 04:58:30;;;;;;;;;27.50;22.00;;;;;4.45;65.92;102054.63;4939524;28;45629;-95
2021/11/24 05:00:55;;;;;;;;;36.00;26.50;;;;;4.38;65.74;102047.03;4939306;28;45486;-94
2021/11/24 05:03:21;;;;;;;;;26.50;22.50;;;;;4.39;65.77;102046.25;4939278;28;47258;-95
2021/11/24 05:05:46;;;;;;;;;28.75;28.25;;;;;4.45;65.80;102053.72;4939480;28;46219;-94
2021/11/24 05:08:12;;;;;;;;;26.75;25.75;;;;;4.48;65.85;102064.41;4939455;28;45320;-94
2021/11/24 05:10:37;;;;;;;;;34.50;25.75;;;;;4.48;65.94;102064.41;4939798;28;45514;-95
2021/11/24 05:13:05;;;;;;;;;26.00;26.00;;;;;4.36;66.06;102051.16;4938562;28;48149;-94
2021/11/24 05:15:35;;;;;;;;;30.75;25.50;;;;;4.38;65.98;102048.72;4939657;28;45425;-94
2021/11/24 05:18:06;;;;;;;;;26.75;22.00;;;;;4.40;65.93;102066.31;4921732;28;45349;-95
2021/11/24 05:20:33;;;;;;;;;22.75;22.50;;;;;4.32;65.98;102034.41;4920238;28;45288;-95
2021/11/24 05:23:02;;;;;;;;;32.50;25.75;;;;;4.32;66.15;102041.28;4930681;28;47077;-94
2021/11/24 05:25:29;;;;;;;;;29.75;22.25;;;;;4.32;66.63;102046.47;4936531;28;45336;-95
2021/11/24 05:27:54;;;;;;;;;34.00;25.00;;;;;4.42;65.91;102063.81;4951329;28;45340;-94
2021/11/24 05:30:21;;;;;;;;;33.75;27.00;;;;;4.40;66.26;102058.50;4938817;28;45225;-95
2021/11/24 05:32:47;;;;;;;;;25.50;23.00;;;;;4.43;65.74;102063.97;4935442;28;47062;-94
2021/11/24 05:35:13;;;;;;;;;23.50;23.25;;;;;4.29;65.75;102036.72;4932774;28;45625;-94
2021/11/24 05:37:38;;;;;;;;;24.50;23.00;;;;;4.31;66.01;102042.03;4930300;28;45370;-94
2021/11/24 05:40:04;;;;;;;;;24.50;23.50;;;;;4.18;65.78;102022.72;4939008;28;45496;-95
2021/11/24 05:42:30;;;;;;;;;23.00;19.75;;;;;4.28;66.24;102033.97;4938608;28;47478;-95
2021/11/24 05:47:54;;;;;;;;;20.50;19.00;;;;;4.38;67.27;102043.53;4899905;29;45426;-95
2021/11/24 05:50:20;;;;;;;;;20.25;17.25;;;;;4.39;67.03;102046.25;4899764;29;45343;-95
2021/11/24 05:52:45;;;;;;;;;25.25;20.75;;;;;4.39;67.42;102046.25;4898961;29;47581;-94
2021/11/24 05:55:11;;;;;;;;;21.25;16.00;;;;;4.34;67.63;102024.13;4883628;29;45430;-95
2021/11/24 05:57:36;;;;;;;;;29.50;18.00;;;;;4.33;67.49;102014.53;4882805;29;45409;-94
2021/11/24 06:00:04;;;;;;;;;28.50;23.00;;;;;4.41;67.17;102025.59;4880674;29;45479;-94
2021/11/24 06:02:29;;;;;;;;;28.50;22.25;;;;;4.40;67.29;102018.56;4895551;29;48223;-95
2021/11/24 06:04:55;;;;;;;;;20.50;18.75;;;;;4.40;67.33;102018.56;4899209;29;45365;-95
2021/11/24 06:07:20;;;;;;;;;34.00;23.75;;;;;4.36;67.37;102012.16;4896413;29;45366;-95
2021/11/24 06:09:45;;;;;;;;;26.00;18.25;;;;;4.38;67.97;102017.53;4898443;29;45506;-95
2021/11/24 06:12:11;;;;;;;;;25.50;23.50;;;;;4.44;68.11;102020.69;4901105;29;48057;-95
2021/11/24 06:14:36;;;;;;;;;24.25;20.50;;;;;4.46;67.56;102026.91;4903192;29;46015;-95
2021/11/24 06:17:02;;;;;;;;;23.50;21.00;;;;;4.54;68.01;102033.75;4903462;29;45530;-94
2021/11/24 06:19:27;;;;;;;;;23.00;21.50;;;;;4.44;67.92;102012.88;4887755;29;45501;-95
2021/11/24 06:21:52;;;;;;;;;24.75;19.00;;;;;4.44;67.89;102015.47;4907470;29;47558;-94
2021/11/24 06:24:18;;;;;;;;;26.75;21.50;;;;;4.51;67.83;102024.75;4925867;28;44775;-92
2021/11/24 06:26:43;;;;;;;;;29.25;23.75;;;;;4.54;67.67;102023.34;4954149;28;45372;-92
2021/11/24 06:29:08;;;;;;;;;23.50;19.75;;;;;4.49;67.82;102013.28;4954630;28;45370;-93
2021/11/24 06:31:35;;;;;;;;;23.50;20.50;;;;;4.58;67.81;102028.06;4945390;28;47208;-95
2021/11/24 06:34:00;;;;;;;;;25.50;21.75;;;;;4.45;68.03;102007.84;4939034;28;45268;-95
2021/11/24 06:36:26;;;;;;;;;25.00;21.25;;;;;4.52;67.57;102013.56;4954337;28;45964;-95
2021/11/24 06:38:52;;;;;;;;;23.75;20.75;;;;;4.50;67.71;102004.72;4972584;28;45368;-95
2021/11/24 06:41:17;;;;;;;;;22.75;19.75;;;;;4.49;67.29;102006.41;4943475;28;47025;-95
2021/11/24 06:43:43;;;;;;;;;30.25;25.00;;;;;4.56;67.03;102015.69;4950737;28;45497;-95
2021/11/24 06:46:08;;;;;;;;;27.75;22.75;;;;;4.47;67.14;102000.16;4919755;28;45463;-95
2021/11/24 06:48:34;;;;;;;;;33.25;26.00;;;;;4.46;67.24;102004.44;4918841;28;45456;-95
2021/11/24 06:50:59;;;;;;;;;32.00;24.50;;;;;4.45;66.97;101993.91;4937542;28;47281;-95
2021/11/24 06:53:25;;;;;;;;;25.50;22.25;;;;;4.54;66.99;102012.94;4937680;28;45451;-95
2021/11/24 06:55:50;;;;;;;;;32.25;22.50;;;;;4.47;67.03;101998.47;4937331;28;45479;-95
2021/11/24 06:58:16;;;;;;;;;30.00;22.25;;;;;4.46;67.04;102000.91;4947391;28;45504;-95
2021/11/24 07:00:42;;;;;;;;;26.25;21.00;;;;;4.41;66.91;101983.97;4919990;28;48237;-94
2021/11/24 07:03:07;;;;;;;;;26.00;21.25;;;;;4.58;67.09;102015.06;4939313;28;45489;-95
2021/11/24 07:05:33;;;;;;;;;28.25;21.75;;;;;4.55;66.96;102004.38;4938450;28;45289;-95
2021/11/24 07:07:58;;;;;;;;;24.25;23.75;;;;;4.53;67.65;101994.59;4953640;28;45596;-95
2021/11/24 07:10:24;;;;;;;;;19.00;18.25;;;;;4.46;67.45;101972.31;4937454;28;47197;-95
2021/11/24 07:12:49;;;;;;;;;25.50;18.75;;;;;4.51;67.69;101978.84;4937182;28;45286;-95
2021/11/24 07:15:15;;;;;;;;;22.75;18.75;;;;;4.52;67.62;101983.28;4935445;28;45767;-95
2021/11/24 07:17:40;;;;;;;;;25.25;20.50;;;;;4.56;67.89;101984.50;4937099;28;45624;-95
2021/11/24 07:20:06;;;;;;;;;25.50;23.00;;;;;4.65;67.60;102006.13;4943450;28;48391;-95
2021/11/24 07:22:32;;;;;;;;;21.00;19.75;;;;;4.55;67.62;101980.06;4925818;28;45808;-95
2021/11/24 07:24:58;;;;;;;;;26.75;23.00;;;;;4.61;67.67;101991.03;4937087;28;45375;-94
2021/11/24 07:27:23;;;;;;;;;25.00;18.50;;;;;4.57;67.93;101981.09;4934208;28;45513;-83
2021/11/24 07:29:50;;;;;;;;;21.00;17.25;;;;;4.71;67.36;101994.44;4930190;28;46493;-83
2021/11/24 07:32:15;;;;;;;;;19.75;18.25;;;;;4.71;67.91;101990.16;4930298;28;45378;-82
2021/11/24 07:34:41;;;;;;;;;24.75;20.25;;;;;4.67;67.70;101986.34;4931012;28;45771;-82
2021/11/24 07:37:06;;;;;;;;;24.50;18.00;;;;;4.72;67.96;101991.03;4931130;28;45879;-82
2021/11/24 07:39:32;;;;;;;;;28.50;19.75;;;;;4.78;67.67;101995.13;4935267;28;46179;-82
2021/11/24 07:41:58;;;;;;;;;26.25;19.25;;;;;4.82;67.49;101996.28;4937274;28;45465;-83
2021/11/24 07:44:24;;;;;;;;;23.50;19.75;;;;;4.78;67.63;101986.41;4935495;28;45374;-83
2021/11/24 07:46:49;;;;;;;;;22.75;19.00;;;;;4.84;67.89;101999.03;4929864;28;45568;-83
2021/11/24 07:49:14;;;;;;;;;20.75;18.50;;;;;4.86;67.82;101995.81;4930807;28;45491;-83
2021/11/24 07:51:40;;;;;;;;;22.75;15.75;;;;;4.87;67.91;101992.41;4933381;28;45347;-83
2021/11/24 07:54:05;;;;;;;;;24.75;18.25;;;;;4.90;67.39;101989.16;4926785;28;45683;-82
2021/11/24 07:56:30;;;;;;;;;26.50;24.00;;;;;4.94;67.30;101993.88;4922376;28;45381;-82
2021/11/24 07:58:56;;;;;;;;;30.75;28.25;;;;;4.95;67.40;101987.00;4929950;28;45542;-82
2021/11/24 08:01:21;;;;;;;;;43.50;35.50;;;;;5.00;67.23;101988.31;4930091;28;45551;-82
2021/11/24 08:03:47;;;;;;;;;41.75;37.00;;;;;5.02;66.78;101992.88;4938833;28;45489;-82
2021/11/24 08:06:12;;;;;;;;;34.75;31.75;;;;;5.07;67.22;101993.28;4940615;28;46796;-83
2021/11/24 08:08:38;;;;;;;;;46.75;36.50;;;;;5.03;66.98;101983.34;4933551;28;46639;-82
2021/11/24 08:11:04;;;;;;;;;55.25;41.00;;;;;5.10;66.47;101990.03;4941562;28;45533;-82
2021/11/24 08:13:29;;;;;;;;;36.00;34.25;;;;;5.14;66.94;101993.03;4942248;28;45477;-82
2021/11/24 08:15:55;;;;;;;;;43.75;37.75;;;;;5.16;66.12;101992.25;4941376;28;45436;-82
2021/11/24 08:18:20;;;;;;;;;30.75;23.50;;;;;5.20;66.63;101987.47;4944378;28;45608;-82
2021/11/24 08:20:46;;;;;;;;;24.75;22.25;;;;;5.24;66.95;101993.84;4939330;28;45378;-83
2021/11/24 08:23:11;;;;;;;;;26.50;19.50;;;;;5.28;66.77;101988.13;4941397;28;45396;-83
2021/11/24 08:25:37;;;;;;;;;22.50;18.25;;;;;5.32;67.03;101992.81;4942468;28;45776;-83
2021/11/24 08:28:03;;;;;;;;;23.50;19.50;;;;;5.39;66.84;101989.03;4948647;28;45415;-84
2021/11/24 08:30:29;;;;;;;;;23.25;19.25;;;;;5.42;66.68;101983.19;4935602;28;45738;-84
2021/11/24 08:32:54;;;;;;;;;21.25;18.75;;;;;5.50;66.63;101992.59;4935047;28;45668;-84
2021/11/24 08:35:20;;;;;;;;;22.50;15.75;;;;;5.51;66.31;101981.41;4932811;28;45679;-84
2021/11/24 08:37:49;;;;;;;;;25.00;19.75;;;;;5.56;66.04;101972.28;4935061;28;46429;-83
2021/11/24 08:40:15;;;;;;;;;25.00;20.50;;;;;5.56;66.16;101972.28;4932749;28;45378;-83
2021/11/24 08:42:41;;;;;;;;;29.00;17.75;;;;;5.57;66.12;101976.69;4935962;28;45357;-85
2021/11/24 08:45:08;;;;;;;;;25.00;21.50;;;;;5.62;66.17;101971.88;4933338;28;45536;-84
2021/11/24 08:47:35;;;;;;;;;20.25;18.50;;;;;5.67;66.37;101970.56;4931078;28;45571;-84
2021/11/24 08:50:00;;;;;;;;;29.00;21.50;;;;;5.74;66.24;101968.50;4933678;28;45619;-83
2021/11/24 08:52:26;;;;;;;;;30.25;24.75;;;;;5.82;65.94;101978.78;4933651;28;45372;-84
2021/11/24 08:54:51;;;;;;;;;22.00;19.00;;;;;5.87;65.94;101962.66;4935034;28;45362;-83
2021/11/24 08:57:17;;;;;;;;;23.75;19.25;;;;;5.90;65.72;101961.19;4934245;28;47433;-84
2021/11/24 08:59:42;;;;;;;;;22.00;18.75;;;;;6.00;65.65;101967.19;4931228;28;45485;-86
2021/11/24 09:02:09;;;;;;;;;15.25;13.50;;;;;6.00;65.29;101964.59;4931086;28;45438;-86
2021/11/24 09:04:35;;;;;;;;;23.00;17.25;;;;;6.01;65.57;101959.50;4931046;28;45451;-85
2021/11/24 09:07:01;;;;;;;;;19.50;17.50;;;;;5.99;65.44;101955.84;4938512;28;46482;-87
2021/11/24 09:09:26;;;;;;;;;23.50;18.50;;;;;6.03;65.76;101951.81;4928592;28;45524;-87
2021/11/24 09:11:52;;;;;;;;;23.00;16.75;;;;;6.11;65.76;101945.56;4943215;28;45646;-84
2021/11/24 09:14:19;;;;;;;;;19.25;17.25;;;;;6.17;65.27;101947.78;4931095;28;45385;-85
2021/11/24 09:16:44;;;;;;;;;22.50;19.00;;;;;6.24;65.23;101937.06;4936061;28;48321;-85
2021/11/24 09:19:09;;;;;;;;;30.75;23.50;;;;;6.34;65.37;101946.53;4932665;28;45491;-86
2021/11/24 09:21:35;;;;;;;;;23.25;18.00;;;;;6.40;65.17;101933.09;4934201;28;45449;-85
2021/11/24 09:24:04;;;;;;;;;21.50;16.75;;;;;6.48;64.76;101932.03;4931727;28;45510;-86
2021/11/24 09:28:58;;;;;;;;;22.75;21.75;;;;;6.58;64.28;101931.09;4931978;28;45390;-86
2021/11/24 09:31:23;;;;;;;;;19.75;18.75;;;;;6.61;64.49;101930.41;4932410;28;45434;-86
2021/11/24 09:33:49;;;;;;;;;24.25;18.75;;;;;6.67;64.69;101936.16;4931955;28;45631;-86
2021/11/24 09:36:14;;;;;;;;;24.00;15.50;;;;;6.70;63.86;101932.88;4932598;28;57551;-86
2021/11/24 09:38:40;;;;;;;;;26.00;20.75;;;;;6.74;64.04;101931.41;4932578;28;50011;-86
2021/11/24 09:41:09;;;;;;;;;19.00;16.25;;;;;6.81;64.02;101928.50;4930628;28;45527;-86
2021/11/24 09:43:40;;;;;;;;;24.75;18.00;;;;;6.88;63.96;101929.91;4932330;28;45459;-86
2021/11/24 09:46:06;;;;;;;;;19.75;16.50;;;;;6.87;63.41;101915.03;4925496;28;48146;-85
2021/11/24 09:48:32;;;;;;;;;21.25;18.00;;;;;6.91;63.38;101915.38;4931802;28;45567;-86
2021/11/24 09:50:59;;;;;;;;;19.00;17.50;;;;;7.05;63.84;101918.19;4931011;28;45915;-85
2021/11/24 09:53:27;;;;;;;;;21.75;20.00;;;;;7.10;63.52;101922.06;4929366;28;45413;-84
2021/11/24 09:55:53;;;;;;;;;19.75;15.25;;;;;7.17;63.24;101917.31;4932511;28;48203;-84
2021/11/24 09:58:18;;;;;;;;;25.75;20.00;;;;;7.25;63.37;101914.53;4941807;28;45520;-84
2021/11/24 10:00:45;;;;;;;;;24.50;21.25;;;;;7.31;62.89;101921.03;4932194;28;45565;-84
2021/11/24 10:03:11;;;;;;;;;19.00;17.00;;;;;7.36;62.80;101920.59;4934134;28;45920;-84
2021/11/24 10:05:37;;;;;;;;;21.75;21.25;;;;;7.46;62.78;101910.84;4941068;28;48259;-84
2021/11/24 10:08:04;;;;;;;;;26.25;18.75;;;;;7.56;62.97;101918.59;4931161;28;45501;-86
2021/11/24 10:10:30;;;;;;;;;23.25;19.25;;;;;7.62;62.53;101910.31;4933443;28;45519;-86
2021/11/24 10:12:56;;;;;;;;;19.00;14.75;;;;;7.67;61.85;101906.38;4929940;28;45427;-86
2021/11/24 10:15:47;;;;;;;;;17.50;17.50;;;;;7.72;62.04;101914.53;4932645;28;45431;-86
2021/11/24 10:18:16;;;;;;;;;19.75;17.50;;;;;7.70;61.81;101909.22;4949420;28;45498;-86
2021/11/24 10:21:09;;;;;;;;;21.25;16.75;;;;;7.64;61.87;101895.66;4931557;28;45481;-87
2021/11/24 10:23:42;;;;;;;;;23.00;19.50;;;;;7.75;61.96;101901.72;4930151;28;45503;-88
2021/11/24 10:26:15;;;;;;;;;28.50;21.75;;;;;7.79;61.68;101903.75;4929925;28;47962;-87
2021/11/24 10:28:48;;;;;;;;;20.50;16.50;;;;;7.81;61.82;101888.16;4930652;28;45538;-87
2021/11/24 10:31:26;;;;;;;;;21.75;18.50;;;;;7.87;61.44;101890.34;4934638;28;45612;-87
2021/11/24 10:33:52;;;;;;;;;23.00;19.50;;;;;7.83;61.24;101878.78;4930804;28;47853;-87
2021/11/24 10:36:18;;;;;;;;;25.00;20.25;;;;;7.83;61.15;101877.03;4937031;28;46320;-87
2021/11/24 10:38:46;;;;;;;;;18.25;18.25;;;;;7.86;61.61;101872.84;4943027;28;45854;-88
2021/11/24 10:41:24;;;;;;;;;26.75;20.00;;;;;7.89;61.90;101858.28;4927928;28;47346;-87
2021/11/24 10:43:49;;;;;;;;;20.25;18.00;;;;;8.01;61.12;101863.53;4931020;28;45540;-87
2021/11/24 10:46:17;;;;;;;;;21.00;20.50;;;;;8.09;61.22;101860.59;4931590;28;53118;-87
2021/11/24 10:48:42;;;;;;;;;19.50;16.75;;;;;8.14;60.86;101860.09;4932995;28;45606;-87
2021/11/24 10:51:29;;;;;;;;;21.25;18.75;;;;;8.11;60.84;101858.97;4937147;28;46124;-87
2021/11/24 10:54:18;;;;;;;;;28.00;20.75;;;;;8.14;60.91;101857.47;4929548;28;45827;-87
2021/11/24 10:57:06;;;;;;;;;19.50;17.00;;;;;8.15;60.86;101854.09;4931290;28;46881;-87
2021/11/24 10:59:37;;;;;;;;;22.00;21.00;;;;;8.16;60.58;101847.16;4928416;28;45427;-88
2021/11/24 11:02:25;;;;;;;;;23.25;19.00;;;;;8.18;60.79;101834.16;4931309;28;45534;-86
2021/11/24 11:05:00;;;;;;;;;20.25;18.00;;;;;8.20;60.95;101820.41;4931050;28;45781;-87
2021/11/24 11:07:27;;;;;;;;;25.25;22.50;;;;;8.33;60.71;101816.06;4931547;28;47143;-87
2021/11/24 11:10:05;;;;;;;;;22.75;20.00;;;;;8.43;60.32;101822.84;4932201;28;45490;-87
2021/11/24 11:12:32;;;;;;;;;22.50;21.75;;;;;8.46;60.12;101817.84;4925045;28;45505;-87
2021/11/24 11:15:13;;;;;;;;;21.00;18.25;;;;;8.48;59.65;101806.69;4929349;28;45586;-86
2021/11/24 11:18:06;;;;;;;;;23.25;22.25;;;;;8.53;60.14;101808.75;4925966;28;45428;-90
2021/11/24 11:20:51;;;;;;;;;27.75;21.50;;;;;8.53;59.83;101787.81;4910365;28;45793;-85